Time;durP1;ratioP1;P1;durP2;ratioP2;P2;SDS_P1;SDS_P2;PMS_P1;PMS_P2;Temp;Humidity;BMP_temperature;BMP_pressure;BME280_temperature;BME280_humidity;BME280_pressure;Samples;Min_cycle;Max_cycle;Signal;HPM_P1;HPM_P2
2023/09/25 00:01:21;;;;;;;7.40;3.90;;;;;;;26.29;50.96;102051.99;107182;1250;25240;-63
2023/09/25 00:03:49;;;;;;;7.60;4.20;;;;;;;26.19;50.93;102049.26;107138;1261;25388;-64
2023/09/25 00:06:16;;;;;;;7.90;4.00;;;;;;;25.94;51.67;102049.33;107115;1251;25783;-65
2023/09/25 00:08:43;;;;;;;5.70;3.40;;;;;;;25.86;51.88;102046.63;107145;1254;22546;-62
2023/09/25 00:11:10;;;;;;;5.10;3.30;;;;;;;25.89;51.40;102042.73;107022;1267;25341;-64
2023/09/25 00:13:37;;;;;;;3.80;3.30;;;;;;;25.80;51.00;102043.96;107086;1254;25331;-63
2023/09/25 00:16:06;;;;;;;4.20;3.20;;;;;;;25.90;50.02;102040.36;107064;1253;25369;-64
2023/09/25 00:18:34;;;;;;;5.90;3.40;;;;;;;25.90;49.63;102038.95;107105;1255;25423;-63
2023/09/25 00:21:02;;;;;;;9.30;3.40;;;;;;;25.90;49.51;102040.91;107063;1257;25328;-64
2023/09/25 00:23:29;;;;;;;5.10;3.60;;;;;;;26.00;49.30;102039.31;106945;1253;25337;-65
2023/09/25 00:26:03;;;;;;;5.50;3.40;;;;;;;26.02;49.39;102038.84;106942;1257;25469;-63
2023/09/25 00:28:31;;;;;;;8.70;3.50;;;;;;;26.02;49.45;102039.39;107112;1251;22635;-66
2023/09/25 00:30:58;;;;;;;4.70;3.50;;;;;;;26.01;49.56;102035.20;107116;1257;25303;-65
2023/09/25 00:33:26;;;;;;;6.30;3.50;;;;;;;25.99;49.68;102035.65;107004;1260;25362;-64
2023/09/25 00:35:56;;;;;;;5.30;3.70;;;;;;;25.98;49.76;102029.69;107067;1254;25226;-65
2023/09/25 00:38:23;;;;;;;7.60;3.30;;;;;;;25.97;49.47;102022.96;106647;1257;26620;-64
2023/09/25 00:40:50;;;;;;;4.00;3.30;;;;;;;25.97;48.80;102025.84;106854;1257;25281;-64
2023/09/25 00:43:17;;;;;;;7.80;3.90;;;;;;;25.97;48.65;102024.25;107112;1266;25331;-70
2023/09/25 00:45:44;;;;;;;10.20;5.40;;;;;;;25.97;48.72;102028.52;106776;1260;25674;-64
2023/09/25 00:48:24;;;;;;;7.30;4.10;;;;;;;25.96;48.65;102031.06;106751;1267;24234;-65
2023/09/25 00:50:54;;;;;;;9.90;4.40;;;;;;;25.92;48.37;102030.80;106729;1258;25242;-63
2023/09/25 00:53:21;;;;;;;8.60;3.70;;;;;;;25.88;48.67;102031.17;106842;1256;24293;-65
2023/09/25 00:55:48;;;;;;;5.50;3.90;;;;;;;25.77;49.15;102032.27;106775;1256;25343;-63
2023/09/25 00:58:15;;;;;;;5.90;3.80;;;;;;;25.89;48.51;102032.61;106750;1256;24408;-63
2023/09/25 01:00:42;;;;;;;5.80;3.40;;;;;;;25.91;48.12;102033.34;106396;1264;25475;-64
2023/09/25 01:03:10;;;;;;;6.40;3.50;;;;;;;25.93;48.18;102037.48;106374;1277;25341;-63
2023/09/25 01:05:37;;;;;;;5.40;3.70;;;;;;;25.93;48.12;102038.73;106625;1259;25347;-65
2023/09/25 01:08:05;;;;;;;7.90;3.50;;;;;;;25.93;48.18;102039.77;106824;1260;25343;-66
2023/09/25 01:10:33;;;;;;;5.10;4.10;;;;;;;25.93;48.69;102037.09;106729;1270;25233;-66
2023/09/25 01:13:01;;;;;;;5.40;3.80;;;;;;;25.94;49.36;102036.55;106035;1259;1003769;-63
2023/09/25 01:15:28;;;;;;;8.50;4.00;;;;;;;25.94;49.71;102030.13;106826;1262;25350;-64
2023/09/25 01:17:56;;;;;;;4.30;3.90;;;;;;;25.93;49.61;102031.44;107061;1257;25366;-63
2023/09/25 01:20:24;;;;;;;6.90;3.50;;;;;;;25.91;48.21;102033.86;107133;1251;22643;-63
2023/09/25 01:22:51;;;;;;;7.00;3.90;;;;;;;25.89;47.58;102033.27;107146;1262;25386;-64
2023/09/25 01:25:19;;;;;;;3.70;3.40;;;;;;;25.90;47.92;102037.16;107100;1254;25383;-65
2023/09/25 01:27:47;;;;;;;3.80;3.30;;;;;;;25.90;48.42;102037.30;107107;1254;25468;-64
2023/09/25 01:30:15;;;;;;;7.00;3.60;;;;;;;25.91;48.65;102038.50;106805;1263;25356;-63
2023/09/25 01:32:44;;;;;;;5.20;3.50;;;;;;;25.91;48.76;102036.52;107150;1251;23875;-65
2023/09/25 01:35:19;;;;;;;4.50;2.90;;;;;;;25.90;48.42;102034.12;106883;1256;24300;-65
2023/09/25 01:37:47;;;;;;;4.60;2.80;;;;;;;25.85;47.62;102032.88;107105;1250;25341;-64
2023/09/25 01:40:15;;;;;;;5.30;3.20;;;;;;;25.86;47.18;102035.43;107125;1254;25481;-64
2023/09/25 01:42:44;;;;;;;5.40;3.20;;;;;;;25.85;47.34;102035.31;107185;1252;25408;-64
2023/09/25 01:45:13;;;;;;;5.70;3.80;;;;;;;25.76;47.69;102038.35;107235;1260;24332;-65
2023/09/25 01:47:41;;;;;;;4.90;3.30;;;;;;;25.71;47.83;102036.04;107082;1254;22530;-64
2023/09/25 01:50:10;;;;;;;4.90;3.50;;;;;;;25.70;48.22;102032.00;107128;1254;25350;-63
2023/09/25 01:52:39;;;;;;;7.20;3.70;;;;;;;25.71;48.69;102031.46;107123;1251;22678;-65
2023/09/25 01:55:07;;;;;;;6.80;3.50;;;;;;;25.70;49.11;102033.62;106919;1256;22539;-63
2023/09/25 01:57:36;;;;;;;8.90;3.80;;;;;;;25.70;49.43;102030.94;107136;1255;25331;-64
2023/09/25 02:00:13;;;;;;;4.60;3.60;;;;;;;25.70;49.78;102036.67;107076;1263;25349;-64
2023/09/25 02:02:43;;;;;;;6.20;4.10;;;;;;;25.69;50.09;102035.14;107129;1251;25350;-66
2023/09/25 02:05:10;;;;;;;15.40;5.10;;;;;;;25.70;50.24;102034.02;107092;1251;25344;-64
2023/09/25 02:07:38;;;;;;;8.30;4.50;;;;;;;25.71;50.09;102039.10;106788;1259;24477;-63
2023/09/25 02:10:06;;;;;;;6.40;3.80;;;;;;;25.82;49.30;102036.91;106540;1264;25468;-63
2023/09/25 02:12:33;;;;;;;6.40;3.40;;;;;;;25.87;48.89;102042.66;106879;1257;25328;-66
2023/09/25 02:15:04;;;;;;;8.10;4.40;;;;;;;25.89;48.96;102043.43;106821;1258;25465;-64
2023/09/25 02:17:31;;;;;;;4.90;3.70;;;;;;;25.89;49.22;102048.23;106749;1256;22578;-64
2023/09/25 02:20:12;;;;;;;8.40;4.50;;;;;;;25.89;49.60;102047.68;106754;1259;25383;-62
2023/09/25 02:22:40;;;;;;;8.70;4.90;;;;;;;25.88;49.67;102049.92;106830;1266;22550;-62
2023/09/25 02:25:08;;;;;;;9.90;5.60;;;;;;;25.87;49.67;102054.77;106763;1263;22601;-64
2023/09/25 02:27:36;;;;;;;7.00;5.30;;;;;;;25.85;49.71;102055.77;106813;1269;23868;-63
2023/09/25 02:30:05;;;;;;;7.40;5.60;;;;;;;25.83;50.04;102060.48;106863;1262;24273;-64
2023/09/25 02:32:32;;;;;;;8.10;5.70;;;;;;;25.82;50.22;102068.20;106922;1259;24193;-65
2023/09/25 02:35:00;;;;;;;6.40;4.60;;;;;;;25.81;50.78;102067.05;106795;1253;25405;-64
2023/09/25 02:37:28;;;;;;;5.90;4.70;;;;;;;25.79;51.33;102069.83;106872;1266;22522;-65
2023/09/25 02:39:56;;;;;;;7.80;5.00;;;;;;;25.76;51.55;102068.42;107067;1266;25957;-63
2023/09/25 02:42:23;;;;;;;6.20;5.10;;;;;;;25.72;51.54;102068.83;107125;1254;25318;-64
2023/09/25 02:44:49;;;;;;;8.40;5.40;;;;;;;25.68;51.51;102073.02;107159;1257;25389;-63
2023/09/25 02:47:17;;;;;;;9.80;5.20;;;;;;;25.63;51.54;102072.67;107039;1263;25331;-64
2023/09/25 02:49:44;;;;;;;6.10;5.30;;;;;;;25.58;51.43;102074.06;106937;1266;25334;-63
2023/09/25 02:52:11;;;;;;;6.10;5.40;;;;;;;25.53;51.86;102069.55;107178;1250;23864;-64
2023/09/25 02:54:39;;;;;;;9.40;5.00;;;;;;;25.50;52.16;102072.45;107100;1251;25407;-63
2023/09/25 02:57:06;;;;;;;7.50;5.30;;;;;;;25.47;52.53;102073.88;107046;1251;25365;-63
2023/09/25 02:59:33;;;;;;;11.10;5.60;;;;;;;25.37;53.02;102072.73;107084;1263;22526;-63
2023/09/25 03:02:02;;;;;;;8.40;5.30;;;;;;;25.29;53.13;102072.31;107119;1253;22663;-63
2023/09/25 03:04:29;;;;;;;9.00;5.30;;;;;;;25.26;53.24;102071.82;107077;1267;25494;-63
2023/09/25 03:06:56;;;;;;;8.60;5.50;;;;;;;25.23;53.23;102070.73;107189;1256;25331;-64
2023/09/25 03:09:24;;;;;;;10.20;6.00;;;;;;;25.20;53.13;102070.42;107275;1250;25405;-63
2023/09/25 03:11:51;;;;;;;9.60;5.40;;;;;;;25.17;53.04;102072.04;107074;1254;25334;-62
2023/09/25 03:14:18;;;;;;;8.70;5.70;;;;;;;25.13;52.97;102069.94;107129;1254;25331;-63
2023/09/25 03:16:45;;;;;;;8.40;5.70;;;;;;;25.11;52.89;102069.03;107146;1254;25430;-64
2023/09/25 03:19:13;;;;;;;8.60;5.90;;;;;;;25.21;52.48;102067.86;107172;1251;25343;-64
2023/09/25 03:21:44;;;;;;;8.20;5.50;;;;;;;25.23;52.00;102067.74;107065;1253;22541;-64
2023/09/25 03:24:11;;;;;;;10.70;5.10;;;;;;;25.22;51.56;102067.60;107119;1254;24064;-63
2023/09/25 03:26:38;;;;;;;9.00;5.40;;;;;;;25.23;51.23;102069.17;107020;1266;25523;-64
2023/09/25 03:29:06;;;;;;;7.50;5.00;;;;;;;25.23;51.14;102073.77;106912;1263;25448;-63
2023/09/25 03:31:33;;;;;;;10.80;5.60;;;;;;;25.24;50.92;102073.88;107165;1257;25395;-64
2023/09/25 03:34:00;;;;;;;9.40;5.30;;;;;;;25.26;50.78;102075.90;107157;1261;25359;-62
2023/09/25 03:36:27;;;;;;;9.00;5.20;;;;;;;25.26;50.71;102073.73;106889;1254;25333;-65
2023/09/25 03:38:55;;;;;;;14.70;5.40;;;;;;;25.26;50.78;102076.95;107204;1251;25322;-65
2023/09/25 03:41:23;;;;;;;7.80;5.50;;;;;;;25.28;50.72;102076.85;106852;1266;25404;-65
2023/09/25 03:43:50;;;;;;;11.20;5.40;;;;;;;25.29;50.78;102076.62;107204;1256;22533;-62
2023/09/25 03:46:17;;;;;;;14.10;5.80;;;;;;;25.29;50.68;102080.52;106879;1260;25281;-65
2023/09/25 03:48:47;;;;;;;9.00;5.10;;;;;;;25.27;50.70;102081.52;107103;1263;22515;-64
2023/09/25 03:51:15;;;;;;;14.70;5.70;;;;;;;25.25;50.75;102083.79;107103;1255;22646;-63
2023/09/25 03:53:42;;;;;;;13.90;5.30;;;;;;;25.22;50.77;102085.54;107049;1253;25275;-64
2023/09/25 03:56:10;;;;;;;8.80;5.30;;;;;;;25.21;50.81;102088.63;107062;1253;24272;-63
2023/09/25 03:58:37;;;;;;;11.90;5.20;;;;;;;25.20;50.77;102094.55;107214;1254;25321;-65
2023/09/25 04:01:04;;;;;;;9.50;5.70;;;;;;;25.21;50.63;102091.84;107103;1255;25389;-64
2023/09/25 04:03:31;;;;;;;12.30;5.70;;;;;;;25.22;50.67;102093.56;107172;1255;25355;-65
2023/09/25 04:05:59;;;;;;;8.50;5.80;;;;;;;25.21;50.84;102094.48;107177;1250;25401;-63
2023/09/25 04:08:26;;;;;;;13.00;6.10;;;;;;;25.22;50.82;102100.12;106864;1263;25377;-65
2023/09/25 04:10:53;;;;;;;9.60;5.50;;;;;;;25.23;50.87;102099.19;107048;1254;25365;-65
2023/09/25 04:13:22;;;;;;;6.50;5.50;;;;;;;25.23;50.91;102099.20;106890;1255;25500;-64
2023/09/25 04:15:50;;;;;;;10.00;5.40;;;;;;;25.27;50.75;102093.25;107024;1263;25394;-64
2023/09/25 04:18:18;;;;;;;11.40;5.20;;;;;;;25.32;50.47;102097.90;107032;1252;23867;-66
2023/09/25 04:20:46;;;;;;;6.60;4.80;;;;;;;25.26;50.24;102102.35;107155;1254;25271;-69
2023/09/25 04:23:13;;;;;;;13.90;5.10;;;;;;;25.27;49.88;102106.38;107094;1250;25318;-70
2023/09/25 04:25:40;;;;;;;6.80;4.30;;;;;;;25.28;49.51;102107.92;107100;1257;25468;-67
2023/09/25 04:28:08;;;;;;;10.80;5.10;;;;;;;25.31;49.37;102114.13;107009;1254;25337;-68
2023/09/25 04:30:35;;;;;;;8.80;5.30;;;;;;;25.34;49.42;102115.37;107112;1250;25366;-66
2023/09/25 04:33:03;;;;;;;6.20;4.80;;;;;;;25.36;49.36;102119.86;106964;1259;24206;-67
2023/09/25 04:35:30;;;;;;;9.30;5.70;;;;;;;25.28;49.61;102119.81;107114;1254;22519;-63
2023/09/25 04:37:57;;;;;;;10.40;5.40;;;;;;;25.31;49.95;102125.98;107148;1253;25350;-65
2023/09/25 04:40:24;;;;;;;9.00;5.40;;;;;;;25.39;50.25;102120.56;107068;1251;24232;-64
2023/09/25 04:42:52;;;;;;;11.90;5.20;;;;;;;25.39;50.54;102117.86;107193;1251;25340;-64
2023/09/25 04:45:20;;;;;;;8.90;5.60;;;;;;;25.39;50.57;102118.92;107151;1261;25346;-65
2023/09/25 04:47:47;;;;;;;8.60;5.60;;;;;;;25.38;50.61;102116.88;107101;1250;25350;-66
2023/09/25 04:50:15;;;;;;;7.70;5.50;;;;;;;25.37;50.79;102117.27;106985;1267;25488;-65
2023/09/25 04:52:44;;;;;;;10.20;6.30;;;;;;;25.36;51.07;102119.98;107112;1259;25350;-65
2023/09/25 04:55:12;;;;;;;11.80;5.60;;;;;;;25.35;51.00;102120.77;107149;1254;25388;-65
2023/09/25 04:57:40;;;;;;;12.10;5.40;;;;;;;25.36;50.87;102124.66;107068;1255;25331;-63
2023/09/25 05:00:27;;;;;;;11.00;6.50;;;;;;;25.37;50.84;102123.52;107149;1254;25356;-65
2023/09/25 05:02:55;;;;;;;10.40;6.00;;;;;;;25.38;50.66;102121.48;106662;1264;25548;-64
2023/09/25 05:05:22;;;;;;;11.20;6.20;;;;;;;25.40;50.62;102130.27;106812;1258;25449;-65
2023/09/25 05:07:51;;;;;;;10.00;6.90;;;;;;;25.42;50.45;102132.65;107217;1257;25516;-64
2023/09/25 05:10:22;;;;;;;9.90;6.80;;;;;;;25.44;50.47;102135.33;107146;1251;25404;-66
2023/09/25 05:12:49;;;;;;;8.90;6.90;;;;;;;25.47;50.54;102137.98;107078;1256;22526;-64
2023/09/25 05:15:17;;;;;;;17.40;7.80;;;;;;;25.49;50.65;102138.60;107201;1251;25359;-65
2023/09/25 05:17:45;;;;;;;10.60;7.40;;;;;;;25.51;50.66;102141.12;107111;1254;25399;-63
2023/09/25 05:20:18;;;;;;;10.00;7.40;;;;;;;25.54;50.60;102141.84;107126;1255;25405;-65
2023/09/25 05:22:46;;;;;;;12.20;7.80;;;;;;;25.57;50.52;102142.38;107131;1250;24199;-64
2023/09/25 05:25:14;;;;;;;13.10;8.00;;;;;;;25.59;50.14;102144.71;107115;1254;25349;-64
2023/09/25 05:27:42;;;;;;;10.80;7.80;;;;;;;25.61;49.94;102149.59;107018;1253;25434;-64
2023/09/25 05:30:10;;;;;;;14.20;8.80;;;;;;;25.62;49.81;102152.85;106899;1254;22530;-67
2023/09/25 05:32:39;;;;;;;14.90;8.00;;;;;;;25.66;49.77;102153.83;106847;1254;22515;-66
2023/09/25 05:35:07;;;;;;;14.00;8.40;;;;;;;25.68;49.60;102159.23;107100;1250;25423;-64
2023/09/25 05:37:34;;;;;;;15.20;8.80;;;;;;;25.69;49.55;102162.23;107115;1260;22524;-65
2023/09/25 05:40:02;;;;;;;10.90;8.10;;;;;;;25.69;49.66;102168.40;107142;1250;25658;-66
2023/09/25 05:42:31;;;;;;;15.20;8.50;;;;;;;25.71;49.53;102168.30;107181;1263;22527;-64
2023/09/25 05:44:58;;;;;;;9.20;7.20;;;;;;;25.72;49.23;102168.43;107153;1263;22531;-65
2023/09/25 05:47:25;;;;;;;14.20;7.80;;;;;;;25.73;49.31;102171.89;106886;1267;25356;-65
2023/09/25 05:49:53;;;;;;;14.60;7.30;;;;;;;25.76;49.07;102176.70;107184;1254;25331;-64
2023/09/25 05:52:20;;;;;;;12.30;7.50;;;;;;;25.81;48.78;102176.20;107096;1251;25514;-65
2023/09/25 05:54:49;;;;;;;12.50;7.60;;;;;;;25.85;48.59;102179.34;107090;1257;25468;-65
2023/09/25 05:57:16;;;;;;;10.30;6.80;;;;;;;25.89;48.45;102180.17;107111;1259;25408;-65
2023/09/25 05:59:43;;;;;;;15.00;7.30;;;;;;;25.92;48.34;102182.64;107041;1256;25331;-65
2023/09/25 06:02:10;;;;;;;10.20;6.90;;;;;;;25.95;48.20;102180.84;106870;1258;25331;-65
2023/09/25 06:04:37;;;;;;;11.70;7.50;;;;;;;25.96;48.05;102180.38;107111;1253;25395;-67
2023/09/25 06:07:05;;;;;;;7.60;6.80;;;;;;;25.99;48.21;102178.30;107133;1254;25330;-65
2023/09/25 06:09:35;;;;;;;14.00;7.80;;;;;;;26.00;48.00;102179.97;107166;1254;25342;-65
2023/09/25 06:12:02;;;;;;;10.60;6.60;;;;;;;26.00;47.76;102178.20;107224;1254;25395;-66
2023/09/25 06:14:29;;;;;;;10.40;6.60;;;;;;;26.03;47.45;102189.02;107161;1250;25356;-65
2023/09/25 06:16:59;;;;;;;11.50;6.20;;;;;;;26.07;47.40;102191.44;107098;1254;25331;-70
2023/09/25 06:19:26;;;;;;;11.60;6.20;;;;;;;26.10;47.58;102193.75;107134;1254;25328;-66
2023/09/25 06:21:54;;;;;;;13.00;6.60;;;;;;;26.15;47.44;102198.43;107092;1254;25352;-66
2023/09/25 06:24:21;;;;;;;11.20;6.40;;;;;;;26.23;47.35;102197.56;107210;1250;25462;-66
2023/09/25 06:26:53;;;;;;;9.30;6.20;;;;;;;26.39;47.06;102202.70;107142;1264;26945;-67
2023/09/25 06:29:23;;;;;;;9.40;5.80;;;;;;;26.46;46.96;102210.41;107077;1257;25344;-65
2023/09/25 06:31:50;;;;;;;12.80;6.90;;;;;;;26.50;46.81;102210.67;107085;1257;25478;-65
2023/09/25 06:34:28;;;;;;;9.50;6.30;;;;;;;26.52;46.81;102217.13;107168;1254;23228;-65
2023/09/25 06:36:56;;;;;;;11.80;6.30;;;;;;;26.53;46.98;102214.27;106743;1257;431349;-64
2023/09/25 06:39:23;;;;;;;9.80;5.70;;;;;;;26.45;47.22;102217.62;107088;1254;25328;-63
2023/09/25 06:41:50;;;;;;;11.70;6.60;;;;;;;26.44;47.24;102215.54;107120;1257;25445;-64
2023/09/25 06:44:22;;;;;;;9.80;6.00;;;;;;;26.36;47.30;102217.70;107165;1251;25346;-65
2023/09/25 06:46:49;;;;;;;10.50;6.30;;;;;;;26.31;47.71;102216.21;107098;1261;25337;-66
2023/09/25 06:49:17;;;;;;;8.60;5.90;;;;;;;26.53;46.75;102219.20;107200;1251;22650;-67
2023/09/25 06:51:44;;;;;;;10.50;6.70;;;;;;;26.64;46.35;102223.27;107184;1254;25343;-66
2023/09/25 06:54:12;;;;;;;12.70;5.90;;;;;;;26.65;46.33;102225.33;107112;1256;25469;-67
2023/09/25 06:56:39;;;;;;;8.40;5.40;;;;;;;26.53;45.89;102223.84;107126;1254;25315;-65
2023/09/25 06:59:06;;;;;;;9.20;5.00;;;;;;;26.54;45.04;102220.89;107116;1251;25405;-65
2023/09/25 07:01:33;;;;;;;8.30;5.30;;;;;;;26.55;44.85;102224.05;106774;1269;25356;-65
2023/09/25 07:04:01;;;;;;;7.00;5.40;;;;;;;26.56;44.58;102226.14;107221;1251;25478;-66
2023/09/25 07:06:29;;;;;;;14.30;5.70;;;;;;;26.60;44.81;102227.48;107078;1256;25337;-67
2023/09/25 07:08:57;;;;;;;9.10;5.10;;;;;;;26.64;44.83;102231.33;107127;1252;25464;-65
2023/09/25 07:11:24;;;;;;;6.50;4.60;;;;;;;26.67;44.32;102230.95;106885;1253;22521;-65
2023/09/25 07:13:51;;;;;;;7.30;4.80;;;;;;;26.78;44.23;102235.73;107114;1254;25529;-64
2023/09/25 07:16:18;;;;;;;11.70;5.90;;;;;;;26.73;44.46;102238.73;107035;1257;25328;-66
2023/09/25 07:18:47;;;;;;;10.00;5.60;;;;;;;26.77;44.49;102238.46;107071;1255;22800;-64
2023/09/25 07:21:15;;;;;;;12.10;5.70;;;;;;;26.91;44.00;102237.73;107128;1254;24422;-64
2023/09/25 07:23:43;;;;;;;9.30;5.40;;;;;;;26.94;43.74;102237.33;107067;1254;25446;-66
2023/09/25 07:26:10;;;;;;;6.60;4.90;;;;;;;26.94;43.28;102240.55;107079;1256;25475;-64
2023/09/25 07:28:37;;;;;;;13.80;6.40;;;;;;;26.90;43.32;102243.66;107098;1263;24186;-65
2023/09/25 07:31:05;;;;;;;10.50;5.10;;;;;;;26.87;43.27;102244.23;107040;1264;25328;-64
2023/09/25 07:33:33;;;;;;;12.10;5.20;;;;;;;26.85;43.33;102246.65;107134;1250;25356;-65
2023/09/25 07:36:00;;;;;;;9.60;4.60;;;;;;;26.84;43.37;102244.56;106781;1267;25405;-64
2023/09/25 07:38:32;;;;;;;7.60;4.70;;;;;;;26.87;43.16;102244.40;107096;1267;22589;-66
2023/09/25 07:40:59;;;;;;;8.10;5.20;;;;;;;26.93;43.04;102247.95;107228;1250;25464;-64
2023/09/25 07:43:29;;;;;;;10.30;5.50;;;;;;;26.97;42.30;102246.41;107133;1267;25520;-67
2023/09/25 07:46:18;;;;;;;8.00;4.80;;;;;;;27.01;42.27;102246.84;106884;1271;25436;-65
2023/09/25 07:48:45;;;;;;;7.80;5.10;;;;;;;27.03;42.41;102246.11;106908;1254;26637;-66
2023/09/25 07:51:13;;;;;;;9.80;4.90;;;;;;;27.05;42.03;102246.16;106940;1257;25331;-65
2023/09/25 07:53:44;;;;;;;7.80;4.60;;;;;;;27.09;41.91;102244.48;107098;1257;25468;-65
2023/09/25 07:56:11;;;;;;;10.70;5.00;;;;;;;27.10;41.84;102242.98;106880;1259;25386;-66
2023/09/25 07:58:39;;;;;;;8.10;5.20;;;;;;;27.11;42.48;102245.77;107391;1260;23020;-63
2023/09/25 08:01:08;;;;;;;10.90;5.40;;;;;;;27.13;42.63;102244.38;107450;1260;22528;-58
2023/09/25 08:03:37;;;;;;;8.10;4.50;;;;;;;27.17;42.58;102245.36;107287;1256;25429;-58
2023/09/25 08:06:05;;;;;;;5.90;5.00;;;;;;;27.23;42.11;102247.09;107383;1254;22542;-61
2023/09/25 08:08:35;;;;;;;11.60;4.80;;;;;;;27.27;41.99;102245.23;107202;1255;25402;-64
2023/09/25 08:11:03;;;;;;;9.80;5.20;;;;;;;27.30;42.02;102251.59;107061;1256;24355;-60
2023/09/25 08:13:30;;;;;;;11.20;4.70;;;;;;;27.33;42.19;102248.86;107079;1257;25362;-58
2023/09/25 08:16:05;;;;;;;8.30;5.10;;;;;;;27.38;42.08;102251.98;107168;1257;25381;-59
2023/09/25 08:18:32;;;;;;;11.10;4.70;;;;;;;27.43;42.19;102253.08;107336;1253;22572;-64
2023/09/25 08:21:00;;;;;;;6.50;4.70;;;;;;;27.46;41.83;102250.58;107045;1267;25394;-58
2023/09/25 08:23:28;;;;;;;9.00;4.60;;;;;;;27.46;41.43;102256.30;107389;1266;22510;-59
2023/09/25 08:25:55;;;;;;;8.20;4.30;;;;;;;27.45;41.70;102255.59;107177;1266;24043;-58
2023/09/25 08:28:23;;;;;;;8.30;4.50;;;;;;;27.47;41.69;102258.52;106903;1258;25350;-59
2023/09/25 08:30:51;;;;;;;7.80;4.70;;;;;;;27.51;41.81;102256.06;107567;1267;25378;-59
2023/09/25 08:33:18;;;;;;;7.00;4.60;;;;;;;27.55;41.20;102251.20;107404;1258;25328;-59
2023/09/25 08:35:46;;;;;;;7.40;4.90;;;;;;;27.58;40.77;102248.63;107117;1270;22517;-59
2023/09/25 08:38:13;;;;;;;12.10;5.10;;;;;;;27.61;40.25;102246.64;107168;1267;25334;-59
2023/09/25 08:40:44;;;;;;;13.50;5.00;;;;;;;27.65;39.78;102247.98;107215;1260;25319;-58
2023/09/25 08:43:11;;;;;;;6.70;4.30;;;;;;;27.66;39.83;102245.73;107264;1256;22549;-57
2023/09/25 08:45:49;;;;;;;8.30;4.70;;;;;;;27.70;40.20;102242.09;107046;1272;24232;-58
2023/09/25 08:48:17;;;;;;;7.50;4.20;;;;;;;27.75;40.21;102243.91;107101;1267;25446;-59
2023/09/25 08:50:44;;;;;;;7.80;4.40;;;;;;;27.81;39.67;102245.03;107256;1251;22993;-59
2023/09/25 08:53:11;;;;;;;13.50;5.10;;;;;;;27.87;39.01;102242.29;107028;1258;25355;-58
2023/09/25 08:55:38;;;;;;;9.30;4.10;;;;;;;27.91;38.85;102240.77;107079;1270;25478;-59
2023/09/25 08:58:07;;;;;;;7.10;4.50;;;;;;;27.96;38.78;102242.00;106848;1262;25350;-58
2023/09/25 09:00:35;;;;;;;8.70;4.20;;;;;;;28.02;38.89;102239.66;107160;1267;25360;-58
2023/09/25 09:03:02;;;;;;;18.80;5.20;;;;;;;28.08;38.91;102239.91;107259;1267;24395;-58
2023/09/25 09:05:30;;;;;;;8.00;4.00;;;;;;;28.15;38.86;102239.17;107292;1267;25392;-59
2023/09/25 09:08:02;;;;;;;10.30;4.40;;;;;;;28.21;38.69;102243.05;107103;1259;22528;-58
2023/09/25 09:10:31;;;;;;;7.50;4.40;;;;;;;28.26;38.44;102243.23;107385;1256;22853;-56
2023/09/25 09:12:58;;;;;;;7.50;4.20;;;;;;;28.29;38.36;102243.37;107201;1254;22642;-59
2023/09/25 09:15:30;;;;;;;6.80;4.40;;;;;;;28.32;38.42;102245.65;107208;1273;25309;-57
2023/09/25 09:17:58;;;;;;;7.90;4.40;;;;;;;28.36;38.37;102241.80;107334;1256;25376;-58
2023/09/25 09:20:38;;;;;;;9.90;4.10;;;;;;;28.40;38.48;102243.59;107244;1257;25349;-58
2023/09/25 09:23:06;;;;;;;9.80;4.40;;;;;;;28.44;37.92;102244.90;107080;1254;25326;-58
2023/09/25 09:25:33;;;;;;;8.40;3.90;;;;;;;28.49;38.05;102246.52;107069;1273;24327;-59
2023/09/25 09:28:23;;;;;;;6.40;3.70;;;;;;;28.56;37.72;102249.25;106403;1275;24350;-57
2023/09/25 09:30:50;;;;;;;11.90;4.40;;;;;;;28.60;37.83;102248.05;106463;1265;25475;-58
2023/09/25 09:33:18;;;;;;;13.70;4.70;;;;;;;28.65;38.00;102247.52;106745;1278;25345;-56
2023/09/25 09:35:45;;;;;;;10.90;4.80;;;;;;;28.70;38.21;102249.29;106964;1264;25409;-57
2023/09/25 09:38:12;;;;;;;12.50;4.30;;;;;;;28.75;38.01;102247.98;106888;1257;25361;-59
2023/09/25 09:40:39;;;;;;;12.50;4.70;;;;;;;28.78;37.79;102250.79;106940;1256;24240;-58
2023/09/25 09:43:06;;;;;;;13.90;4.70;;;;;;;28.82;37.50;102247.60;106806;1259;24199;-58
2023/09/25 09:45:33;;;;;;;10.20;3.80;;;;;;;28.85;37.47;102249.92;106810;1256;23043;-58
2023/09/25 09:48:01;;;;;;;10.10;4.60;;;;;;;28.89;37.25;102251.39;107178;1263;22614;-58
2023/09/25 09:50:29;;;;;;;12.80;4.90;;;;;;;28.91;37.09;102252.10;106977;1270;24330;-58
2023/09/25 09:52:59;;;;;;;10.10;4.80;;;;;;;28.94;37.07;102255.14;107162;1254;22520;-57
2023/09/25 09:55:28;;;;;;;12.20;4.70;;;;;;;28.95;37.53;102250.72;106970;1270;24186;-58
2023/09/25 09:57:55;;;;;;;14.90;5.30;;;;;;;28.98;37.69;102247.12;107063;1269;25262;-58
2023/09/25 10:00:23;;;;;;;11.70;4.30;;;;;;;29.02;37.45;102247.23;107200;1267;22642;-57
2023/09/25 10:02:50;;;;;;;9.50;4.50;;;;;;;29.04;36.98;102244.70;107149;1260;22573;-58
2023/09/25 10:05:18;;;;;;;10.30;4.60;;;;;;;29.07;36.83;102244.50;106770;1272;25378;-57
2023/09/25 10:08:05;;;;;;;13.90;4.70;;;;;;;29.09;37.16;102244.91;107298;1251;25331;-56
2023/09/25 10:10:33;;;;;;;12.70;4.30;;;;;;;29.11;36.94;102241.67;107004;1259;22790;-58
2023/09/25 10:13:00;;;;;;;12.60;4.60;;;;;;;29.14;36.93;102245.56;107335;1266;24199;-58
2023/09/25 10:15:27;;;;;;;11.80;5.20;;;;;;;29.19;36.86;102241.66;107198;1261;25322;-58
2023/09/25 10:17:54;;;;;;;13.10;5.00;;;;;;;29.24;36.84;102235.73;106996;1260;22527;-58
2023/09/25 10:20:30;;;;;;;12.20;5.90;;;;;;;29.28;36.72;102235.74;106847;1267;25359;-58
2023/09/25 10:23:04;;;;;;;13.90;5.10;;;;;;;29.34;36.52;102231.72;106869;1260;25325;-58
2023/09/25 10:25:47;;;;;;;12.90;4.70;;;;;;;29.37;36.50;102229.84;107403;1250;25472;-58
2023/09/25 10:28:16;;;;;;;13.00;4.90;;;;;;;29.38;36.53;102231.91;107049;1270;25410;-57
2023/09/25 10:30:44;;;;;;;17.40;5.00;;;;;;;29.37;36.61;102228.58;107122;1269;22513;-58
2023/09/25 10:33:12;;;;;;;13.80;5.10;;;;;;;29.36;36.85;102230.86;107424;1254;25355;-58
2023/09/25 10:35:40;;;;;;;12.80;5.20;;;;;;;29.37;36.64;102230.91;107165;1253;25333;-57
2023/09/25 10:38:19;;;;;;;11.00;5.30;;;;;;;29.37;36.76;102228.79;107126;1254;23285;-58
2023/09/25 10:41:07;;;;;;;10.10;4.40;;;;;;;29.38;36.99;102225.16;107077;1254;25328;-58
2023/09/25 10:43:35;;;;;;;8.50;4.70;;;;;;;29.38;37.14;102224.45;107158;1256;25328;-58
2023/09/25 10:46:03;;;;;;;12.10;4.40;;;;;;;29.39;37.35;102225.96;107416;1261;25410;-58
2023/09/25 10:48:31;;;;;;;11.00;4.60;;;;;;;29.38;37.36;102225.88;106986;1267;22519;-58
2023/09/25 10:51:00;;;;;;;8.90;4.00;;;;;;;29.36;37.19;102227.93;107170;1251;25413;-59
2023/09/25 10:53:26;;;;;;;12.90;5.00;;;;;;;29.47;36.68;102228.16;106902;1274;22521;-58
2023/09/25 10:55:54;;;;;;;12.70;4.40;;;;;;;29.53;36.57;102232.33;107350;1254;25318;-56
2023/09/25 10:58:21;;;;;;;14.30;5.00;;;;;;;29.56;36.51;102230.90;107093;1254;23037;-58
2023/09/25 11:00:51;;;;;;;10.80;4.70;;;;;;;29.63;36.83;102229.77;107079;1263;25356;-58
2023/09/25 11:03:19;;;;;;;12.20;4.80;;;;;;;29.71;36.71;102228.57;106414;1267;24282;-57
2023/09/25 11:05:47;;;;;;;16.30;5.00;;;;;;;29.77;36.64;102226.02;106942;1257;24233;-59
2023/09/25 11:08:16;;;;;;;11.60;4.60;;;;;;;29.87;36.33;102222.20;106862;1254;25331;-59
2023/09/25 11:10:44;;;;;;;14.80;4.90;;;;;;;29.91;35.95;102221.64;107279;1268;25331;-58
2023/09/25 11:13:11;;;;;;;19.60;4.50;;;;;;;29.91;36.03;102222.54;106947;1258;25468;-58
2023/09/25 11:15:39;;;;;;;14.90;5.30;;;;;;;29.80;36.29;102223.76;107128;1257;25321;-57
2023/09/25 11:18:09;;;;;;;16.00;5.40;;;;;;;29.75;36.34;102218.86;107076;1256;22523;-58
2023/09/25 11:20:38;;;;;;;14.60;5.20;;;;;;;29.73;36.42;102218.98;107159;1267;22551;-58